createdAt,value
2022-08-16T00:00:30.181Z,0
2022-08-16T00:01:26.497Z,0
2022-08-16T00:02:19.942Z,0
2022-08-16T00:03:30.346Z,0
2022-08-16T00:04:25.798Z,0
2022-08-16T00:05:24.102Z,0
2022-08-16T00:06:34.755Z,0
2022-08-16T00:07:30.076Z,0
2022-08-16T00:08:36.529Z,0
2022-08-16T00:09:19.915Z,0
2022-08-16T00:10:31.004Z,0
2022-08-16T00:11:27.587Z,0
2022-08-16T00:12:24.175Z,0
2022-08-16T00:13:25.031Z,0
2022-08-16T00:14:29.236Z,0
2022-08-16T00:15:24.298Z,0
2022-08-16T00:17:05.778Z,0
2022-08-16T00:17:56.218Z,0
2022-08-16T00:18:29.580Z,0
2022-08-16T00:19:23.814Z,0
2022-08-16T00:20:30.358Z,0
2022-08-16T00:21:28.925Z,0
2022-08-16T00:22:27.797Z,0
2022-08-16T00:23:19.903Z,0
2022-08-16T00:24:33.013Z,0
2022-08-16T00:26:33.364Z,0
2022-08-16T00:26:35.262Z,0
2022-08-16T00:26:45.276Z,0
2022-08-16T00:27:31.986Z,0
2022-08-16T00:28:32.706Z,0
2022-08-16T00:29:26.718Z,0
2022-08-16T00:30:29.004Z,0
2022-08-16T00:31:47.061Z,0
2022-08-16T00:32:26.332Z,0
2022-08-16T00:33:25.167Z,0
2022-08-16T00:34:43.973Z,0
2022-08-16T00:35:28.123Z,0
2022-08-16T00:36:24.999Z,0
2022-08-16T00:37:24.418Z,0
2022-08-16T00:38:40.571Z,0
2022-08-16T00:39:30.067Z,0
2022-08-16T00:40:34.961Z,0
2022-08-16T00:41:19.808Z,0
2022-08-16T00:42:32.049Z,0
2022-08-16T00:43:42.866Z,0
2022-08-16T00:44:22.605Z,0
2022-08-16T00:45:29.867Z,0
2022-08-16T00:46:33.556Z,0
2022-08-16T00:47:22.457Z,0
2022-08-16T00:48:28.790Z,0
2022-08-16T00:49:27.970Z,0
2022-08-16T00:50:35.828Z,0
2022-08-16T00:51:22.236Z,0
2022-08-16T00:52:30.875Z,0
2022-08-16T00:53:24.451Z,0
2022-08-16T00:54:22.056Z,0
2022-08-16T00:55:26.852Z,0
2022-08-16T00:56:58.486Z,0
2022-08-16T00:57:24.218Z,0
2022-08-16T00:58:34.445Z,0
2022-08-16T00:59:23.646Z,0
2022-08-16T01:00:41.978Z,0
2022-08-16T01:01:35.889Z,0
2022-08-16T01:02:33.193Z,0
2022-08-16T01:37:35.765Z,0
2022-08-16T01:38:29.182Z,0
2022-08-16T01:39:27.724Z,0
2022-08-16T01:40:22.428Z,0
2022-08-16T01:41:41.957Z,0
2022-08-16T01:42:35.843Z,0
2022-08-16T01:43:23.477Z,0
2022-08-16T01:44:22.846Z,0
2022-08-16T01:45:40.411Z,0
2022-08-16T02:17:32.908Z,0
2022-08-16T02:18:24.533Z,0
2022-08-16T02:19:58.840Z,0
2022-08-16T02:20:28.418Z,0
2022-08-16T02:21:31.184Z,0
2022-08-16T02:22:35.075Z,0
2022-08-16T02:23:26.392Z,0
2022-08-16T02:24:31.436Z,0
2022-08-16T02:25:52.674Z,0
2022-08-16T02:26:34.781Z,0
2022-08-16T02:27:28.342Z,0
2022-08-16T02:28:24.062Z,0
2022-08-16T02:29:31.994Z,0
2022-08-16T02:30:35.925Z,0
2022-08-16T02:32:03.245Z,0
2022-08-16T02:32:50.709Z,0
2022-08-16T02:33:24.902Z,0
2022-08-16T02:34:33.062Z,0
2022-08-16T02:35:24.691Z,0
2022-08-16T02:36:47.736Z,0
2022-08-16T02:37:51.501Z,0
2022-08-16T02:38:40.406Z,0
2022-08-16T02:39:26.753Z,0
2022-08-16T02:40:28.869Z,0
2022-08-16T02:41:28.251Z,0
2022-08-16T02:42:26.149Z,0
2022-08-16T02:43:26.712Z,0
2022-08-16T02:44:28.487Z,0
2022-08-16T02:45:19.905Z,0
2022-08-16T02:46:33.737Z,0
2022-08-16T02:47:26.887Z,0
2022-08-16T02:48:30.985Z,0
2022-08-16T02:49:58.633Z,0
2022-08-16T02:50:54.952Z,0
2022-08-16T02:51:10.298Z,0
2022-08-16T02:51:24.529Z,0
2022-08-16T02:52:29.130Z,0
2022-08-16T02:53:23.553Z,0
2022-08-16T02:54:32.072Z,0
2022-08-16T02:55:41.050Z,0
2022-08-16T02:56:24.402Z,0
2022-08-16T02:57:21.777Z,0
2022-08-16T02:58:25.409Z,0
2022-08-16T02:59:39.762Z,0
2022-08-16T03:00:33.799Z,0
2022-08-16T03:01:36.990Z,0
2022-08-16T03:02:31.799Z,0
2022-08-16T03:03:24.416Z,0
2022-08-16T03:04:29.278Z,0
2022-08-16T03:05:31.061Z,0
2022-08-16T03:06:41.708Z,0
2022-08-16T03:07:27.523Z,0
2022-08-16T03:08:50.968Z,0
2022-08-16T03:09:25.327Z,0
2022-08-16T03:10:34.345Z,0
2022-08-16T03:11:22.719Z,0
2022-08-16T03:12:37.774Z,0
2022-08-16T03:13:26.558Z,0
2022-08-16T03:14:26.049Z,0
2022-08-16T03:15:22.542Z,0
2022-08-16T03:16:38.274Z,0
2022-08-16T03:17:32.157Z,0
2022-08-16T03:18:34.775Z,0
2022-08-16T03:19:21.909Z,0
2022-08-16T03:20:32.502Z,0
2022-08-16T03:21:23.293Z,0
2022-08-16T03:22:28.310Z,0
2022-08-16T03:23:21.700Z,0
2022-08-16T03:24:29.279Z,0
2022-08-16T03:25:21.939Z,0
2022-08-16T03:26:36.909Z,0
2022-08-16T03:27:25.932Z,0
2022-08-16T03:28:23.870Z,0
2022-08-16T03:29:30.341Z,0
2022-08-16T03:30:25.177Z,0
2022-08-16T03:31:26.717Z,0
2022-08-16T03:32:23.845Z,0
2022-08-16T03:33:33.840Z,0
2022-08-16T03:34:28.278Z,0
2022-08-16T03:35:22.119Z,0
2022-08-16T03:36:30.779Z,0
2022-08-16T03:37:23.475Z,0
2022-08-16T03:38:32.886Z,0
2022-08-16T03:39:20.344Z,0
2022-08-16T03:40:33.142Z,0
2022-08-16T03:41:29.529Z,0
2022-08-16T03:42:24.126Z,0
2022-08-16T03:43:50.996Z,0
2022-08-16T03:44:44.351Z,0
2022-08-16T03:45:27.276Z,0
2022-08-16T03:46:47.259Z,0
2022-08-16T03:47:22.634Z,0
2022-08-16T03:48:37.165Z,0
2022-08-16T03:49:23.130Z,0
2022-08-16T03:50:33.128Z,0
2022-08-16T03:51:32.800Z,0
2022-08-16T03:52:31.378Z,0
2022-08-16T03:53:25.139Z,0
2022-08-16T03:54:53.663Z,0
2022-08-16T03:55:37.146Z,0
2022-08-16T03:56:22.933Z,0
2022-08-16T03:57:36.287Z,0
2022-08-16T03:58:28.447Z,0
2022-08-16T03:59:25.890Z,0
2022-08-16T04:00:35.908Z,0
2022-08-16T04:01:32.849Z,0
2022-08-16T04:02:31.287Z,0
2022-08-16T04:03:25.391Z,0
2022-08-16T04:04:32.334Z,0
2022-08-16T04:05:30.577Z,0
2022-08-16T04:06:24.221Z,0
2022-08-16T04:07:22.126Z,0
2022-08-16T04:08:24.606Z,0
2022-08-16T04:09:26.131Z,0
2022-08-16T04:10:36.862Z,0
2022-08-16T04:11:36.793Z,0
2022-08-16T04:12:53.904Z,0
2022-08-16T04:13:58.969Z,0
2022-08-16T04:14:31.116Z,0
2022-08-16T04:15:27.265Z,0
2022-08-16T04:16:27.245Z,0
2022-08-16T04:17:22.289Z,0
2022-08-16T04:18:31.989Z,0
2022-08-16T04:19:31.508Z,0
2022-08-16T04:20:33.644Z,0
2022-08-16T04:21:29.426Z,0
2022-08-16T04:22:27.659Z,0
2022-08-16T04:23:27.115Z,0
2022-08-16T04:24:23.826Z,0
2022-08-16T04:25:22.621Z,0
2022-08-16T04:26:30.749Z,0
2022-08-16T04:27:28.917Z,0
2022-08-16T04:28:51.870Z,0
2022-08-16T04:29:43.704Z,0
2022-08-16T04:30:34.851Z,0
2022-08-16T04:31:22.139Z,0
2022-08-16T04:32:22.790Z,0
2022-08-16T04:33:35.045Z,0
2022-08-16T04:34:24.931Z,0
2022-08-16T04:35:22.826Z,0
2022-08-16T04:36:20.520Z,0
2022-08-16T04:37:27.420Z,0
2022-08-16T04:38:23.091Z,0
2022-08-16T04:39:45.965Z,0
2022-08-16T04:40:29.622Z,0
2022-08-16T04:41:32.852Z,0
2022-08-16T04:42:26.006Z,0
2022-08-16T04:43:25.492Z,0
2022-08-16T04:44:33.018Z,0
2022-08-16T04:45:36.014Z,0
2022-08-16T04:47:01.142Z,0
2022-08-16T04:47:31.432Z,0
2022-08-16T04:48:32.535Z,0
2022-08-16T04:49:20.082Z,0
2022-08-16T04:50:29.779Z,0
2022-08-16T04:51:28.688Z,0
2022-08-16T04:52:33.548Z,0
2022-08-16T04:53:23.123Z,0
2022-08-16T04:54:23.048Z,0
2022-08-16T04:55:31.708Z,0
2022-08-16T04:56:22.044Z,0
2022-08-16T04:57:30.523Z,0
2022-08-16T04:58:44.763Z,0
2022-08-16T04:59:22.407Z,0
2022-08-16T05:00:32.238Z,0
2022-08-16T05:01:24.691Z,0
2022-08-16T05:02:42.659Z,0
2022-08-16T05:03:22.031Z,0
2022-08-16T05:04:36.848Z,0
2022-08-16T05:05:30.695Z,0
2022-08-16T05:06:44.645Z,0
2022-08-16T05:07:32.175Z,0
2022-08-16T05:08:29.674Z,0
2022-08-16T05:09:25.817Z,0
2022-08-16T05:10:22.802Z,0
2022-08-16T05:11:31.979Z,0
2022-08-16T05:12:30.445Z,0
2022-08-16T05:13:22.327Z,0
2022-08-16T05:14:45.172Z,0
2022-08-16T05:15:29.882Z,0
2022-08-16T05:16:26.449Z,0
2022-08-16T05:17:25.365Z,0
2022-08-16T05:18:31.304Z,0
2022-08-16T05:19:27.585Z,0
2022-08-16T05:20:39.248Z,0
2022-08-16T05:21:36.020Z,0
2022-08-16T05:22:33.631Z,0
2022-08-16T05:23:21.037Z,0
2022-08-16T05:24:26.250Z,0
2022-08-16T05:25:41.209Z,0
2022-08-16T05:26:30.183Z,0
2022-08-16T05:27:22.347Z,0
2022-08-16T05:28:21.139Z,0
2022-08-16T05:29:57.837Z,0
2022-08-16T05:30:35.295Z,0
2022-08-16T05:31:21.162Z,0
2022-08-16T05:32:32.952Z,0
2022-08-16T05:33:27.859Z,0
2022-08-16T05:34:24.789Z,0
2022-08-16T05:35:34.294Z,0
2022-08-16T05:36:34.078Z,0
2022-08-16T05:37:26.241Z,0
2022-08-16T05:38:33.063Z,0
2022-08-16T05:39:26.407Z,0
2022-08-16T05:40:26.021Z,0
2022-08-16T05:41:26.842Z,0
2022-08-16T05:42:35.836Z,0
2022-08-16T05:43:31.991Z,0
2022-08-16T05:44:25.698Z,0
2022-08-16T05:45:23.775Z,0
2022-08-16T05:46:29.952Z,0
2022-08-16T05:47:24.378Z,0
2022-08-16T05:48:26.772Z,0
2022-08-16T05:49:39.753Z,0
2022-08-16T05:50:34.496Z,0
2022-08-16T05:51:38.280Z,0
2022-08-16T05:52:24.210Z,0
2022-08-16T05:53:25.168Z,0
2022-08-16T05:54:26.398Z,0
2022-08-16T05:55:24.735Z,0
2022-08-16T05:56:32.485Z,0
2022-08-16T05:57:34.529Z,0
2022-08-16T05:58:32.875Z,0
2022-08-16T05:59:23.872Z,0
2022-08-16T06:00:32.250Z,0
2022-08-16T06:01:22.261Z,0
2022-08-16T06:02:23.718Z,0
2022-08-16T06:03:32.222Z,0
2022-08-16T06:04:35.619Z,0
2022-08-16T06:05:26.670Z,0
2022-08-16T06:06:27.953Z,0
2022-08-16T06:07:37.114Z,0
2022-08-16T06:08:31.545Z,0
2022-08-16T06:09:42.886Z,0
2022-08-16T06:10:32.104Z,0
2022-08-16T06:11:31.884Z,0
2022-08-16T06:12:26.835Z,0
2022-08-16T06:13:22.243Z,0
2022-08-16T06:14:32.207Z,0
2022-08-16T06:15:26.326Z,0
2022-08-16T06:16:27.038Z,0
2022-08-16T06:17:24.913Z,0
2022-08-16T06:18:28.270Z,0
2022-08-16T06:19:26.065Z,0
2022-08-16T06:20:25.587Z,0
2022-08-16T06:21:36.731Z,0
2022-08-16T06:22:37.514Z,0
2022-08-16T06:23:26.295Z,0
2022-08-16T06:24:54.190Z,0
2022-08-16T06:25:36.755Z,0
2022-08-16T06:26:24.360Z,0
2022-08-16T06:27:39.728Z,0
2022-08-16T06:28:35.917Z,0
2022-08-16T06:29:30.161Z,0
2022-08-16T06:30:24.623Z,0
2022-08-16T06:31:24.920Z,0
2022-08-16T06:32:30.254Z,0
2022-08-16T06:33:25.534Z,0
2022-08-16T06:34:56.149Z,0
2022-08-16T06:35:26.279Z,0
2022-08-16T06:36:28.776Z,0
2022-08-16T06:37:23.870Z,0
2022-08-16T06:38:32.898Z,0
2022-08-16T06:39:21.262Z,0
2022-08-16T06:40:33.377Z,0
2022-08-16T06:41:20.863Z,0
2022-08-16T06:42:27.910Z,0
2022-08-16T06:43:27.154Z,0
2022-08-16T06:44:40.968Z,0
2022-08-16T06:45:34.765Z,0
2022-08-16T06:46:32.006Z,0
2022-08-16T06:47:53.071Z,0
2022-08-16T06:48:20.950Z,0
2022-08-16T06:49:31.507Z,0
2022-08-16T06:50:29.518Z,0
2022-08-16T06:51:46.314Z,0
2022-08-16T06:52:57.799Z,0
2022-08-16T06:53:24.833Z,0
2022-08-16T06:54:28.551Z,0
2022-08-16T06:55:20.099Z,0
2022-08-16T06:56:35.028Z,0
2022-08-16T06:57:21.725Z,0
2022-08-16T06:58:31.655Z,0
2022-08-16T06:59:52.505Z,0
2022-08-16T07:00:29.539Z,0
2022-08-16T07:01:46.217Z,0
2022-08-16T07:02:33.435Z,0
2022-08-16T07:03:27.581Z,0
2022-08-16T07:04:32.910Z,0
2022-08-16T07:05:27.311Z,0
2022-08-16T07:06:33.562Z,0
2022-08-16T07:07:34.441Z,0
2022-08-16T07:08:24.568Z,0
2022-08-16T07:09:20.078Z,0
2022-08-16T07:10:25.617Z,0
2022-08-16T07:11:46.018Z,0
2022-08-16T07:12:22.596Z,0
2022-08-16T07:14:24.395Z,0
2022-08-16T07:14:28.534Z,0
2022-08-16T07:15:26.018Z,0
2022-08-16T07:16:20.676Z,0
2022-08-16T07:17:22.001Z,0
2022-08-16T07:18:24.473Z,0
2022-08-16T07:19:22.569Z,0
2022-08-16T07:20:51.900Z,0
2022-08-16T07:21:54.361Z,0
2022-08-16T07:22:37.941Z,0
2022-08-16T07:23:37.248Z,0
2022-08-16T07:24:30.136Z,0
2022-08-16T07:25:34.010Z,0
2022-08-16T07:26:25.351Z,0
2022-08-16T07:27:37.251Z,0
2022-08-16T07:28:28.460Z,0
2022-08-16T07:29:32.140Z,0
2022-08-16T07:30:39.420Z,0
2022-08-16T07:31:38.063Z,0
2022-08-16T07:32:29.199Z,0
2022-08-16T07:33:51.916Z,0
2022-08-16T07:34:35.213Z,0
2022-08-16T07:35:29.939Z,0
2022-08-16T07:36:25.056Z,0
2022-08-16T07:37:23.210Z,0
2022-08-16T07:38:33.710Z,0
2022-08-16T07:39:33.851Z,0
2022-08-16T07:40:58.397Z,0
2022-08-16T07:41:22.126Z,0
2022-08-16T07:42:35.318Z,0
2022-08-16T07:43:28.989Z,0
2022-08-16T07:44:20.306Z,0
2022-08-16T07:45:33.592Z,0
2022-08-16T07:46:38.629Z,0
2022-08-16T07:47:31.983Z,0
2022-08-16T07:48:25.242Z,0
2022-08-16T07:49:32.596Z,0
2022-08-16T07:50:57.184Z,0
2022-08-16T07:51:27.208Z,0
2022-08-16T07:52:34.263Z,0
2022-08-16T07:53:29.180Z,0
2022-08-16T07:54:37.961Z,0
2022-08-16T07:55:28.829Z,0
2022-08-16T07:56:33.838Z,0
2022-08-16T07:57:25.206Z,0
2022-08-16T07:58:33.862Z,0
2022-08-16T07:59:45.556Z,0
2022-08-16T08:00:27.894Z,0
2022-08-16T08:01:24.955Z,0
2022-08-16T08:02:27.511Z,0
2022-08-16T08:03:36.069Z,0
2022-08-16T08:04:24.114Z,0
2022-08-16T08:05:25.450Z,0
2022-08-16T08:06:33.450Z,0
2022-08-16T08:07:28.896Z,0
2022-08-16T08:08:50.168Z,0
2022-08-16T08:09:24.029Z,0
2022-08-16T08:10:29.517Z,0
2022-08-16T08:11:24.625Z,0
2022-08-16T08:12:31.941Z,0
2022-08-16T08:13:42.432Z,0
2022-08-16T08:14:30.156Z,0
2022-08-16T08:15:25.310Z,0
2022-08-16T08:16:30.047Z,0
2022-08-16T08:17:42.711Z,0
2022-08-16T08:18:31.117Z,0
2022-08-16T08:19:20.905Z,0
2022-08-16T08:20:27.889Z,0
2022-08-16T08:21:27.594Z,0
2022-08-16T08:22:24.021Z,0
2022-08-16T08:23:35.315Z,0
2022-08-16T08:24:31.497Z,0
2022-08-16T08:25:21.316Z,0
2022-08-16T08:26:20.697Z,0
2022-08-16T08:27:32.644Z,0
2022-08-16T08:28:27.691Z,0
2022-08-16T08:29:24.746Z,0
2022-08-16T08:30:51.658Z,0
2022-08-16T08:31:20.144Z,0
2022-08-16T08:32:59.628Z,0
2022-08-16T08:33:22.554Z,0
2022-08-16T08:34:22.237Z,0
2022-08-16T08:35:26.996Z,0
2022-08-16T08:36:22.509Z,0
2022-08-16T08:37:55.798Z,0
2022-08-16T08:38:46.039Z,0
2022-08-16T08:39:21.849Z,0
2022-08-16T08:40:24.637Z,0
2022-08-16T08:41:28.601Z,0
2022-08-16T08:42:30.288Z,0
2022-08-16T08:43:23.736Z,0
2022-08-16T08:44:32.091Z,0
2022-08-16T08:45:48.695Z,0
2022-08-16T08:46:26.306Z,0
2022-08-16T08:47:26.993Z,0
2022-08-16T08:48:34.731Z,0
2022-08-16T08:49:23.234Z,0
2022-08-16T08:50:32.230Z,0
2022-08-16T08:51:36.727Z,0
2022-08-16T08:52:35.194Z,0
2022-08-16T08:53:29.533Z,0
2022-08-16T08:54:26.230Z,0
2022-08-16T08:55:24.409Z,0
2022-08-16T08:56:27.250Z,0
2022-08-16T08:57:22.883Z,0
2022-08-16T08:58:34.482Z,0
2022-08-16T08:59:28.469Z,0
2022-08-16T09:00:27.104Z,0
2022-08-16T09:01:31.468Z,0
2022-08-16T09:02:30.417Z,0
2022-08-16T09:03:20.424Z,0
2022-08-16T09:04:24.323Z,0
2022-08-16T09:05:35.814Z,0
2022-08-16T09:06:30.863Z,0
2022-08-16T09:07:27.430Z,0
2022-08-16T09:08:20.416Z,0
2022-08-16T09:09:33.777Z,0
2022-08-16T09:10:29.422Z,0
2022-08-16T09:11:23.081Z,0
2022-08-16T09:12:35.582Z,0
2022-08-16T09:13:28.518Z,0
2022-08-16T09:14:25.122Z,0
2022-08-16T09:15:23.894Z,0
2022-08-16T09:17:01.597Z,0
2022-08-16T09:17:48.698Z,0
2022-08-16T09:18:27.220Z,0
2022-08-16T09:19:32.966Z,0
2022-08-16T09:20:28.517Z,0
2022-08-16T09:21:31.139Z,0
2022-08-16T09:22:21.206Z,0
2022-08-16T09:23:31.294Z,0
2022-08-16T09:24:47.153Z,0
2022-08-16T09:25:34.520Z,0
2022-08-16T09:26:45.762Z,0
2022-08-16T09:27:25.280Z,0
2022-08-16T09:29:15.158Z,0
2022-08-16T09:29:29.275Z,0
2022-08-16T09:30:34.142Z,0
2022-08-16T09:31:26.606Z,0
2022-08-16T09:32:28.767Z,0
2022-08-16T09:33:22.385Z,0
2022-08-16T09:34:30.361Z,0
2022-08-16T09:35:19.742Z,0
2022-08-16T09:36:32.174Z,0
2022-08-16T09:38:01.129Z,0
2022-08-16T09:38:32.519Z,0
2022-08-16T09:39:22.563Z,0
2022-08-16T09:40:32.894Z,0
2022-08-16T09:41:24.491Z,0
2022-08-16T09:42:26.005Z,0
2022-08-16T09:43:46.435Z,0
2022-08-16T09:45:09.100Z,0
2022-08-16T09:45:26.872Z,0
2022-08-16T09:46:45.635Z,0
2022-08-16T09:47:57.455Z,0
2022-08-16T09:48:36.833Z,0
2022-08-16T09:49:25.755Z,0
2022-08-16T09:50:22.824Z,0
2022-08-16T09:51:30.844Z,0
2022-08-16T09:52:22.483Z,0
2022-08-16T09:53:24.088Z,0
2022-08-16T09:54:32.137Z,0
2022-08-16T09:55:31.191Z,0
2022-08-16T09:56:22.492Z,0
2022-08-16T09:57:20.469Z,0
2022-08-16T09:58:40.755Z,0
2022-08-16T09:59:30.658Z,0
2022-08-16T10:00:44.844Z,0
2022-08-16T10:01:25.934Z,0
2022-08-16T10:02:44.376Z,0
2022-08-16T10:03:24.340Z,0
2022-08-16T10:04:30.886Z,0
2022-08-16T10:05:24.448Z,0
2022-08-16T10:06:27.145Z,0
2022-08-16T10:07:22.265Z,0
2022-08-16T10:08:28.886Z,0
2022-08-16T10:09:22.335Z,0
2022-08-16T10:10:30.585Z,0
2022-08-16T10:11:24.648Z,0
2022-08-16T10:12:23.535Z,0
2022-08-16T10:13:23.440Z,0
2022-08-16T10:14:33.210Z,0
2022-08-16T10:15:33.507Z,0
2022-08-16T10:16:30.010Z,0
2022-08-16T10:17:25.630Z,0
2022-08-16T10:19:00.733Z,0
2022-08-16T10:19:26.958Z,0
2022-08-16T10:20:27.667Z,0
2022-08-16T10:21:23.877Z,0
2022-08-16T10:22:34.054Z,0
2022-08-16T10:23:24.254Z,0
2022-08-16T10:24:28.023Z,0
2022-08-16T10:27:17.795Z,0
2022-08-16T10:27:19.136Z,0
2022-08-16T10:27:27.315Z,0
2022-08-16T10:27:50.541Z,0
2022-08-16T10:28:30.065Z,0
2022-08-16T10:30:01.160Z,0
2022-08-16T10:30:28.311Z,0
2022-08-16T10:31:45.441Z,0
2022-08-16T10:32:20.984Z,0
2022-08-16T10:33:26.313Z,0
2022-08-16T10:34:32.203Z,0
2022-08-16T10:35:25.221Z,0
2022-08-16T10:36:38.801Z,0
2022-08-16T10:37:32.615Z,0
2022-08-16T10:38:27.709Z,0
2022-08-16T10:39:21.821Z,0
2022-08-16T10:40:30.985Z,0
2022-08-16T10:41:27.626Z,0
2022-08-16T10:42:25.344Z,0
2022-08-16T10:43:25.508Z,0
2022-08-16T10:44:30.490Z,0
2022-08-16T10:45:24.660Z,0
2022-08-16T10:46:40.198Z,0
2022-08-16T10:47:38.088Z,0
2022-08-16T10:48:28.772Z,0
2022-08-16T10:49:23.059Z,0
2022-08-16T10:50:26.699Z,0
2022-08-16T10:51:34.529Z,0
2022-08-16T10:52:21.476Z,0
2022-08-16T10:53:22.070Z,0
2022-08-16T10:54:28.785Z,0
2022-08-16T10:55:44.714Z,0
2022-08-16T10:56:52.318Z,0
2022-08-16T10:57:36.192Z,0
2022-08-16T10:58:34.697Z,0
2022-08-16T10:59:38.316Z,0
2022-08-16T11:00:22.271Z,0
2022-08-16T11:01:43.021Z,0
2022-08-16T11:02:58.530Z,0
2022-08-16T11:03:42.334Z,0
2022-08-16T11:05:05.449Z,0
2022-08-16T11:05:23.834Z,0
2022-08-16T11:06:26.861Z,0
2022-08-16T11:07:55.692Z,0
2022-08-16T11:08:36.484Z,0
2022-08-16T11:09:28.998Z,0
2022-08-16T11:11:05.344Z,0
2022-08-16T11:11:25.588Z,0
2022-08-16T11:12:28.177Z,0
2022-08-16T11:14:11.027Z,0
2022-08-16T11:14:20.587Z,0
2022-08-16T11:15:32.028Z,2
2022-08-16T11:17:11.011Z,2
2022-08-16T11:17:25.025Z,0
2022-08-16T11:18:48.229Z,0
2022-08-16T11:19:22.729Z,0
2022-08-16T11:20:42.065Z,0
2022-08-16T11:21:29.172Z,0
2022-08-16T11:22:23.249Z,0
2022-08-16T11:23:27.935Z,0
2022-08-16T11:24:40.139Z,0
2022-08-16T11:26:23.929Z,0
2022-08-16T11:26:29.813Z,0
2022-08-16T11:27:35.601Z,0
2022-08-16T11:29:12.505Z,0
2022-08-16T11:29:33.714Z,4
2022-08-16T11:30:37.790Z,2
2022-08-16T11:31:24.091Z,0
2022-08-16T11:32:34.437Z,0
2022-08-16T11:34:05.418Z,0
2022-08-16T11:34:31.829Z,0
2022-08-16T11:35:43.424Z,0
2022-08-16T11:36:24.981Z,0
2022-08-16T11:38:04.457Z,1
2022-08-16T11:38:46.647Z,0
2022-08-16T11:39:20.292Z,0
2022-08-16T11:40:32.510Z,0
2022-08-16T11:41:30.852Z,0
2022-08-16T11:42:28.681Z,0
2022-08-16T11:43:29.745Z,0
2022-08-16T11:44:52.235Z,0
2022-08-16T11:45:22.681Z,0
2022-08-16T11:46:44.633Z,0
2022-08-16T11:47:30.332Z,0
2022-08-16T11:48:27.718Z,0
2022-08-16T11:49:21.727Z,0
2022-08-16T11:50:21.064Z,0
2022-08-16T11:51:30.609Z,0
2022-08-16T11:52:25.124Z,0
2022-08-16T11:53:28.098Z,0
2022-08-16T11:54:36.126Z,0
2022-08-16T11:55:27.866Z,0
2022-08-16T11:56:39.588Z,0
2022-08-16T11:57:21.796Z,0
2022-08-16T11:58:29.378Z,0
2022-08-16T11:59:24.381Z,1
2022-08-16T12:00:33.641Z,0
2022-08-16T12:01:29.634Z,2
2022-08-16T12:02:31.939Z,0
2022-08-16T12:03:31.439Z,0
2022-08-16T12:04:26.409Z,0
2022-08-16T12:05:26.752Z,0
2022-08-16T12:06:24.807Z,0
2022-08-16T12:07:24.092Z,0
2022-08-16T12:08:30.155Z,0
2022-08-16T12:09:24.710Z,4
2022-08-16T12:10:28.001Z,3
2022-08-16T12:11:34.966Z,0
2022-08-16T12:12:25.112Z,0
2022-08-16T12:13:22.428Z,0
2022-08-16T12:14:23.306Z,0
2022-08-16T12:15:24.765Z,5
2022-08-16T12:16:24.458Z,3
2022-08-16T12:17:22.366Z,0
2022-08-16T12:18:25.654Z,4
2022-08-16T12:19:35.181Z,3
2022-08-16T12:20:22.725Z,3
2022-08-16T12:21:36.116Z,1
2022-08-16T12:22:22.079Z,1
2022-08-16T12:23:24.259Z,4
2022-08-16T12:24:23.874Z,4
2022-08-16T12:25:34.856Z,7
2022-08-16T12:26:20.325Z,5
2022-08-16T12:27:24.470Z,4
2022-08-16T12:28:54.125Z,4
2022-08-16T12:29:25.908Z,0
2022-08-16T12:30:30.303Z,1
2022-08-16T12:31:20.515Z,3
2022-08-16T12:32:39.357Z,0
2022-08-16T12:33:25.695Z,6
2022-08-16T12:34:28.660Z,7
2022-08-16T12:35:21.020Z,2
2022-08-16T12:36:31.447Z,6
2022-08-16T12:37:25.212Z,5
2022-08-16T12:38:41.647Z,2
2022-08-16T12:39:34.402Z,0
2022-08-16T12:40:29.078Z,1
2022-08-16T12:41:24.710Z,2
2022-08-16T12:42:24.524Z,1
2022-08-16T12:43:31.252Z,2
2022-08-16T12:44:24.065Z,4
2022-08-16T12:45:22.769Z,5
2022-08-16T12:46:33.123Z,3
2022-08-16T12:47:32.817Z,2
2022-08-16T12:48:33.807Z,7
2022-08-16T12:49:28.975Z,0
2022-08-16T12:50:23.948Z,0
2022-08-16T12:51:24.722Z,3
2022-08-16T12:52:32.541Z,4
2022-08-16T12:53:32.067Z,2
2022-08-16T12:54:28.502Z,3
2022-08-16T12:55:22.905Z,0
2022-08-16T12:56:32.522Z,1
2022-08-16T12:57:36.738Z,0
2022-08-16T12:58:49.202Z,1
2022-08-16T12:59:21.014Z,4
2022-08-16T13:00:26.357Z,6
2022-08-16T13:01:28.273Z,3
2022-08-16T13:02:33.670Z,0
2022-08-16T13:03:23.107Z,0
2022-08-16T13:04:33.137Z,1
2022-08-16T13:05:24.617Z,5
2022-08-16T13:06:20.728Z,1
2022-08-16T13:07:27.126Z,4
2022-08-16T13:08:30.952Z,5
2022-08-16T13:09:28.888Z,5
2022-08-16T13:10:37.179Z,2
2022-08-16T13:11:28.485Z,1
2022-08-16T13:12:31.701Z,0
2022-08-16T13:13:21.728Z,0
2022-08-16T13:14:33.607Z,0
2022-08-16T13:15:24.037Z,0
2022-08-16T13:16:24.951Z,2
2022-08-16T13:17:34.827Z,0
2022-08-16T13:18:34.525Z,0
2022-08-16T13:19:25.416Z,0
2022-08-16T13:20:24.584Z,2
2022-08-16T13:21:33.300Z,0
2022-08-16T13:22:29.107Z,0
2022-08-16T13:23:22.897Z,0
2022-08-16T13:24:35.072Z,1
2022-08-16T13:25:31.904Z,0
2022-08-16T13:26:29.056Z,0
2022-08-16T13:27:59.108Z,0
2022-08-16T13:28:21.832Z,0
2022-08-16T13:29:35.688Z,0
2022-08-16T13:30:41.598Z,0
2022-08-16T13:31:21.217Z,0
2022-08-16T13:32:40.448Z,0
2022-08-16T13:33:30.061Z,0
2022-08-16T13:34:22.153Z,0
2022-08-16T13:35:23.829Z,0
2022-08-16T13:36:47.853Z,3
2022-08-16T13:37:24.484Z,5
2022-08-16T13:38:24.787Z,3
2022-08-16T13:39:28.748Z,2
2022-08-16T13:40:26.328Z,2
2022-08-16T13:41:22.078Z,5
2022-08-16T13:42:31.297Z,4
2022-08-16T13:43:24.114Z,4
2022-08-16T13:44:35.969Z,0
2022-08-16T13:45:23.652Z,4
2022-08-16T13:46:28.595Z,4
2022-08-16T13:47:30.047Z,2
2022-08-16T13:48:25.232Z,5
2022-08-16T13:49:22.333Z,6
2022-08-16T13:50:30.940Z,5
2022-08-16T13:51:30.624Z,7
2022-08-16T13:52:39.777Z,6
2022-08-16T13:53:24.581Z,0
2022-08-16T13:54:31.983Z,4
2022-08-16T13:55:24.427Z,0
2022-08-16T13:56:25.704Z,2
2022-08-16T13:57:53.395Z,3
2022-08-16T13:58:36.492Z,2
2022-08-16T13:59:36.090Z,0
2022-08-16T14:00:23.787Z,0
2022-08-16T14:01:24.785Z,2
2022-08-16T14:02:22.211Z,5
2022-08-16T14:03:35.386Z,5
2022-08-16T14:04:27.373Z,6
2022-08-16T14:05:27.315Z,6
2022-08-16T14:06:32.533Z,4
2022-08-16T14:07:24.430Z,6
2022-08-16T14:08:27.422Z,0
2022-08-16T14:09:21.381Z,6
2022-08-16T14:10:31.054Z,4
2022-08-16T14:11:29.227Z,4
2022-08-16T14:12:23.837Z,0
2022-08-16T14:13:23.029Z,0
2022-08-16T14:14:29.882Z,0
2022-08-16T14:15:26.258Z,0
2022-08-16T14:16:33.736Z,0
2022-08-16T14:18:01.699Z,0
2022-08-16T14:18:31.085Z,2
2022-08-16T14:19:27.955Z,2
2022-08-16T14:20:29.049Z,0
2022-08-16T14:21:23.775Z,0
2022-08-16T14:22:31.509Z,0
2022-08-16T14:23:24.642Z,0
2022-08-16T14:24:34.804Z,0
2022-08-16T14:25:27.870Z,0
2022-08-16T14:26:25.085Z,0
2022-08-16T14:27:34.325Z,0
2022-08-16T14:28:23.793Z,0
2022-08-16T14:29:28.424Z,0
2022-08-16T14:30:21.560Z,0
2022-08-16T14:31:23.126Z,0
2022-08-16T14:32:33.069Z,0
2022-08-16T14:33:23.096Z,0
2022-08-16T14:34:37.877Z,4
2022-08-16T14:35:48.364Z,0
2022-08-16T14:36:29.736Z,0
2022-08-16T14:37:20.568Z,2
2022-08-16T14:38:27.410Z,3
2022-08-16T14:39:30.246Z,6
2022-08-16T14:40:29.033Z,0
2022-08-16T14:41:34.001Z,0
2022-08-16T14:42:38.685Z,5
2022-08-16T14:43:25.009Z,0
2022-08-16T14:44:26.075Z,5
2022-08-16T14:45:36.607Z,4
2022-08-16T14:46:22.545Z,2
2022-08-16T14:47:22.751Z,0
2022-08-16T14:48:34.383Z,1
2022-08-16T14:49:31.163Z,4
2022-08-16T14:50:25.556Z,4
2022-08-16T14:51:23.031Z,3
2022-08-16T14:53:08.797Z,0
2022-08-16T14:53:28.814Z,0
2022-08-16T14:54:30.395Z,0
2022-08-16T14:55:32.652Z,2
2022-08-16T14:56:38.675Z,1
2022-08-16T14:57:26.864Z,0
2022-08-16T14:58:34.765Z,3
2022-08-16T14:59:34.331Z,4
2022-08-16T15:00:33.887Z,5
2022-08-16T15:01:59.409Z,3
2022-08-16T15:02:42.589Z,3
2022-08-16T15:03:28.626Z,0
2022-08-16T15:04:36.874Z,0
2022-08-16T15:05:20.963Z,0
2022-08-16T15:06:23.581Z,0
2022-08-16T15:07:28.570Z,0
2022-08-16T15:08:36.223Z,0
2022-08-16T15:09:23.220Z,0
2022-08-16T15:10:31.917Z,0
2022-08-16T15:11:26.297Z,0
2022-08-16T15:12:26.771Z,0
2022-08-16T15:13:27.996Z,0
2022-08-16T15:14:21.080Z,4
2022-08-16T15:15:22.725Z,0
2022-08-16T15:16:27.722Z,0
2022-08-16T15:17:33.837Z,0
2022-08-16T15:18:27.920Z,0
2022-08-16T15:19:20.676Z,2
2022-08-16T15:20:33.057Z,2
2022-08-16T15:21:29.001Z,1
2022-08-16T15:22:24.489Z,2
2022-08-16T15:23:23.435Z,2
2022-08-16T15:24:26.812Z,1
2022-08-16T15:25:29.190Z,2
2022-08-16T15:26:34.638Z,4
2022-08-16T15:27:35.594Z,1
2022-08-16T15:28:31.414Z,4
2022-08-16T15:29:24.102Z,4
2022-08-16T15:30:56.637Z,0
2022-08-16T15:31:29.602Z,0
2022-08-16T15:32:26.831Z,0
2022-08-16T15:33:20.678Z,2
2022-08-16T15:34:26.212Z,0
2022-08-16T15:35:29.848Z,0
2022-08-16T15:36:26.390Z,2
2022-08-16T15:37:53.360Z,0
2022-08-16T15:39:02.080Z,1
2022-08-16T15:39:35.709Z,0
2022-08-16T15:40:32.433Z,2
2022-08-16T15:41:22.996Z,0
2022-08-16T15:42:29.032Z,0
2022-08-16T15:43:22.579Z,0
2022-08-16T15:44:22.509Z,4
2022-08-16T15:45:28.868Z,4
2022-08-16T15:46:35.424Z,2
2022-08-16T15:47:20.631Z,3
2022-08-16T15:48:29.434Z,4
2022-08-16T15:49:37.003Z,2